Main page
METAR-TAF:

METAR-TAF

Airports :

Paris-Charles De Gaulle, France

Charles de Gaulle Airport

latitude: 49-01N, longitude: 002-32E, elevation: 118 m

Current weather observation

The report was made 16 minutes ago, at 09:00 UTC
Wind 6 kt from the South, varying between South/Southeast and West/Southwest
Temperature 12°C
Humidity 71%
Pressure 1028 hPa
Visibility 10 km or more
Scattered clouds at a height of 4000 ft
Broken clouds at a height of 4800 ft

METAR: LFPG 290900Z 19006KT 150V250 9999 SCT040 BKN048 12/07 Q1028 NOSIG

Time: 11:16 (09:16 UTC)

Forecast

The report was made 4 hours and 16 minutes ago, at 05:00 UTC
Forecast valid from 29 at 06 UTC to 30 at 12 UTC
Wind 5 kt from the South
Visibility 10 km or more
Broken clouds at a height of 4500 ft

TAF: LFPG 290500Z 2906/3012 19005KT 9999 BKN045 TX20/3012Z TN08/2906Z

Weather observations and forecasts of more than 4000 airports (METAR and TAF reports).

The available stations are represented by yellow and red dots on the map.

Hover mouse over dot to see the name of the station.

Then click to see weather observations and forecasts.

To change the map : click on the green buttons with a black cross to zoom in, on the green button with a dash to zoom out, or on the green arrows for adjacent maps.


METAR-TAF: